Time;durP1;ratioP1;P1;durP2;ratioP2;P2;SDS_P1;SDS_P2;PMS_P1;PMS_P2;Temp;Humidity;BMP_temperature;BMP_pressure;BME280_temperature;BME280_humidity;BME280_pressure;Samples;Min_cycle;Max_cycle;Signal;HPM_P1;HPM_P2
2023/05/23 00:00:05;;;;;;;16.00;13.80;;;17.20;99.90;;;;;;5088868;28;20081;-86
2023/05/23 00:02:31;;;;;;;17.98;12.77;;;17.20;99.90;;;;;;5083884;28;20085;-86
2023/05/23 00:04:57;;;;;;;14.55;12.25;;;17.10;99.90;;;;;;5096279;28;20028;-86
2023/05/23 00:07:23;;;;;;;21.05;13.93;;;17.10;99.90;;;;;;5071568;28;20041;-85
2023/05/23 00:09:48;;;;;;;24.52;13.65;;;17.10;99.90;;;;;;5090227;28;20139;-86
2023/05/23 00:12:14;;;;;;;17.83;13.07;;;17.00;99.90;;;;;;5070290;28;20024;-86
2023/05/23 00:14:39;;;;;;;15.35;11.30;;;17.00;99.90;;;;;;5075489;28;20028;-86
2023/05/23 00:17:06;;;;;;;12.23;9.90;;;17.00;99.90;;;;;;5074552;28;20549;-86
2023/05/23 00:19:35;;;;;;;12.32;10.10;;;16.90;99.90;;;;;;5088317;28;20035;-86
2023/05/23 00:22:02;;;;;;;12.70;11.02;;;16.90;99.90;;;;;;5096850;28;20028;-86
2023/05/23 00:24:28;;;;;;;16.73;12.00;;;16.90;99.90;;;;;;5080729;28;20047;-86
2023/05/23 00:26:53;;;;;;;14.70;10.68;;;16.90;99.90;;;;;;5086101;28;20036;-87
2023/05/23 00:29:19;;;;;;;12.68;9.77;;;16.80;99.90;;;;;;5080217;28;20415;-87
2023/05/23 00:31:45;;;;;;;12.35;10.05;;;16.70;99.90;;;;;;5099717;28;20020;-86
2023/05/23 00:34:16;;;;;;;16.40;11.27;;;16.70;99.90;;;;;;5091066;28;20008;-88
2023/05/23 00:36:42;;;;;;;12.88;10.45;;;16.70;99.90;;;;;;5081103;28;20103;-86
2023/05/23 00:39:16;;;;;;;14.52;10.60;;;16.60;99.90;;;;;;5075520;28;20151;-86
2023/05/23 00:41:41;;;;;;;12.80;9.77;;;16.50;99.90;;;;;;5083797;28;20035;-87
2023/05/23 00:44:08;;;;;;;11.20;8.82;;;16.40;99.90;;;;;;5088140;28;20024;-88
2023/05/23 00:46:34;;;;;;;12.25;9.93;;;16.40;99.90;;;;;;5093672;28;20038;-88
2023/05/23 00:49:01;;;;;;;13.15;10.10;;;16.40;99.90;;;;;;5081096;28;20030;-84
2023/05/23 00:51:27;;;;;;;11.20;9.48;;;16.40;99.90;;;;;;5070792;28;20055;-86
2023/05/23 00:53:55;;;;;;;12.55;9.02;;;16.30;99.90;;;;;;5083957;28;20031;-87
2023/05/23 00:56:21;;;;;;;10.13;8.55;;;16.30;99.90;;;;;;5093422;28;20031;-86
2023/05/23 00:58:47;;;;;;;13.95;8.80;;;16.30;99.90;;;;;;5075571;28;20397;-88
2023/05/23 01:01:16;;;;;;;13.63;9.00;;;16.20;99.90;;;;;;5082278;28;20058;-88
2023/05/23 01:03:44;;;;;;;10.18;9.07;;;16.20;99.90;;;;;;5088659;28;20036;-85
2023/05/23 01:06:10;;;;;;;10.13;8.38;;;16.20;99.90;;;;;;5082252;28;20039;-85
2023/05/23 01:08:41;;;;;;;16.52;9.70;;;16.20;99.90;;;;;;5096823;28;20024;-86
2023/05/23 01:11:16;;;;;;;21.08;9.90;;;16.20;99.90;;;;;;5084806;28;20465;-87
2023/05/23 01:13:50;;;;;;;13.00;9.52;;;16.10;99.90;;;;;;5094215;28;20028;-87
2023/05/23 01:16:33;;;;;;;10.18;9.00;;;16.10;99.90;;;;;;5078509;28;20039;-88
2023/05/23 01:19:35;;;;;;;10.35;8.57;;;16.00;99.90;;;;;;5073948;28;20403;-87
2023/05/23 01:22:10;;;;;;;14.15;10.35;;;16.00;99.90;;;;;;5085923;28;20052;-88
2023/05/23 01:24:56;;;;;;;13.70;10.02;;;16.00;99.90;;;;;;5080586;28;20047;-84
2023/05/23 01:27:21;;;;;;;12.82;9.80;;;15.90;99.90;;;;;;5083609;28;20545;-87
2023/05/23 01:29:53;;;;;;;14.38;9.00;;;15.90;99.90;;;;;;5078132;28;20032;-88
2023/05/23 01:32:21;;;;;;;12.82;9.48;;;15.90;99.90;;;;;;5088676;28;20397;-87
2023/05/23 01:34:47;;;;;;;11.10;9.40;;;15.90;99.90;;;;;;5094805;28;20024;-87
2023/05/23 01:37:17;;;;;;;12.50;8.70;;;15.90;99.90;;;;;;5091858;28;20020;-88
2023/05/23 01:39:43;;;;;;;14.07;8.38;;;15.90;99.90;;;;;;5083204;28;20030;-87
2023/05/23 01:42:08;;;;;;;10.82;8.63;;;15.90;99.90;;;;;;5082294;28;20027;-87
2023/05/23 01:44:35;;;;;;;17.35;10.13;;;15.90;99.90;;;;;;5069187;28;20423;-88
2023/05/23 01:47:05;;;;;;;16.02;9.32;;;15.90;99.90;;;;;;5088714;28;20084;-88
2023/05/23 01:49:33;;;;;;;9.40;8.30;;;15.90;99.90;;;;;;5077821;28;20039;-87
2023/05/23 01:52:01;;;;;;;13.27;8.98;;;15.90;99.90;;;;;;5084072;28;20353;-89
2023/05/23 01:54:28;;;;;;;9.93;8.80;;;15.90;99.90;;;;;;5089787;28;20411;-88
2023/05/23 01:56:56;;;;;;;11.57;9.45;;;15.80;99.90;;;;;;5086493;28;20515;-87
2023/05/23 01:59:21;;;;;;;16.92;9.88;;;15.80;99.90;;;;;;5075895;28;20024;-86
2023/05/23 02:01:47;;;;;;;13.75;8.80;;;15.80;99.90;;;;;;5072819;28;20077;-87
2023/05/23 02:04:13;;;;;;;12.25;8.30;;;15.70;99.90;;;;;;5066235;28;20028;-86
2023/05/23 02:06:40;;;;;;;11.45;8.52;;;15.70;99.90;;;;;;5073528;28;20523;-88
2023/05/23 02:09:06;;;;;;;12.38;8.57;;;15.60;99.90;;;;;;5080247;28;20036;-87
2023/05/23 02:11:32;;;;;;;13.02;8.60;;;15.60;99.90;;;;;;5069486;28;20031;-88
2023/05/23 02:13:58;;;;;;;13.60;8.23;;;15.50;99.90;;;;;;5095980;28;20030;-88
2023/05/23 02:16:25;;;;;;;11.65;9.63;;;15.50;99.90;;;;;;5081119;28;20036;-87
2023/05/23 02:18:51;;;;;;;10.75;8.82;;;15.50;99.90;;;;;;5073704;28;20974;-88
2023/05/23 02:21:17;;;;;;;11.30;9.10;;;15.40;99.90;;;;;;5085479;28;20481;-87
2023/05/23 02:23:43;;;;;;;11.35;8.75;;;15.40;99.90;;;;;;5081977;28;20047;-88
2023/05/23 02:26:08;;;;;;;13.13;8.80;;;15.40;99.90;;;;;;5091001;28;20477;-87
2023/05/23 02:28:34;;;;;;;12.63;8.35;;;15.30;99.90;;;;;;5079126;28;20389;-89
2023/05/23 02:31:00;;;;;;;13.20;9.18;;;15.30;99.90;;;;;;5078204;28;20036;-87
2023/05/23 02:33:26;;;;;;;13.27;8.77;;;15.30;99.90;;;;;;5081624;28;20028;-88
2023/05/23 02:35:51;;;;;;;10.45;9.05;;;15.20;99.90;;;;;;5078539;28;20523;-88
2023/05/23 02:38:19;;;;;;;11.80;8.27;;;15.20;99.90;;;;;;5081032;28;20028;-89
2023/05/23 02:40:44;;;;;;;10.88;8.60;;;15.10;99.90;;;;;;5079902;28;20115;-86
2023/05/23 02:43:10;;;;;;;11.65;9.30;;;15.20;99.90;;;;;;5070593;28;20116;-88
2023/05/23 02:45:35;;;;;;;12.05;9.50;;;15.10;99.90;;;;;;5087744;28;20469;-87
2023/05/23 02:48:01;;;;;;;11.98;8.50;;;15.10;99.90;;;;;;5077321;28;20039;-86
2023/05/23 02:50:27;;;;;;;10.55;8.32;;;15.10;99.90;;;;;;5075624;28;20047;-88
2023/05/23 02:52:52;;;;;;;15.13;9.85;;;15.00;99.90;;;;;;5076574;28;20028;-88
2023/05/23 02:55:18;;;;;;;12.70;9.00;;;15.10;99.90;;;;;;5079251;28;20092;-89
2023/05/23 02:57:43;;;;;;;11.63;8.50;;;15.00;99.90;;;;;;5088658;28;20520;-88
2023/05/23 03:00:10;;;;;;;12.38;8.90;;;15.00;99.90;;;;;;5080804;28;20016;-88
2023/05/23 03:02:36;;;;;;;10.93;8.23;;;15.00;99.90;;;;;;5085297;28;20302;-86
2023/05/23 03:05:02;;;;;;;10.20;8.55;;;15.00;99.90;;;;;;5073990;28;20536;-88
2023/05/23 03:07:29;;;;;;;18.42;10.15;;;15.00;99.90;;;;;;5057625;28;20071;-87
2023/05/23 03:09:55;;;;;;;14.13;9.45;;;15.00;99.90;;;;;;5077462;28;20058;-89
2023/05/23 03:12:23;;;;;;;10.52;8.38;;;14.90;99.90;;;;;;5077099;28;20046;-84
2023/05/23 03:14:49;;;;;;;8.77;7.82;;;15.00;99.90;;;;;;5059521;28;20073;-88
2023/05/23 03:17:15;;;;;;;15.02;9.20;;;14.90;99.90;;;;;;5079323;28;20034;-89
2023/05/23 03:19:41;;;;;;;11.13;8.77;;;14.90;99.90;;;;;;5068617;28;20063;-88
2023/05/23 03:22:07;;;;;;;11.35;8.32;;;14.90;99.90;;;;;;5069447;28;20047;-83
2023/05/23 03:24:32;;;;;;;12.55;9.55;;;14.90;99.90;;;;;;5074775;28;20481;-89
2023/05/23 03:26:58;;;;;;;15.07;9.95;;;14.90;99.90;;;;;;5077979;28;20513;-87
2023/05/23 03:29:24;;;;;;;13.32;10.10;;;14.80;99.90;;;;;;5086788;28;20103;-85
2023/05/23 03:31:50;;;;;;;14.70;9.93;;;14.80;99.90;;;;;;5081465;28;20177;-88
2023/05/23 03:34:15;;;;;;;12.13;8.82;;;14.80;99.90;;;;;;5082471;28;20052;-89
2023/05/23 03:36:41;;;;;;;13.30;9.20;;;14.80;99.90;;;;;;5080032;28;20630;-84
2023/05/23 03:39:07;;;;;;;14.85;10.65;;;14.80;99.90;;;;;;5079686;28;20028;-90
2023/05/23 03:41:32;;;;;;;13.80;10.85;;;14.80;99.90;;;;;;5088997;28;20050;-89
2023/05/23 03:43:59;;;;;;;17.88;10.68;;;14.90;99.90;;;;;;5085210;28;20206;-90
2023/05/23 03:46:28;;;;;;;19.77;11.38;;;14.90;99.90;;;;;;5064206;28;20036;-85
2023/05/23 03:48:53;;;;;;;13.50;10.35;;;14.90;99.90;;;;;;5083125;28;20039;-90
2023/05/23 03:51:19;;;;;;;20.38;11.13;;;15.00;99.90;;;;;;5080730;28;20025;-90
2023/05/23 03:53:46;;;;;;;14.23;10.05;;;15.00;99.90;;;;;;5076604;28;20052;-84
2023/05/23 03:56:12;;;;;;;13.52;10.82;;;15.10;99.90;;;;;;5083478;28;20043;-89
2023/05/23 03:58:37;;;;;;;13.50;11.02;;;15.20;99.90;;;;;;5070697;28;20151;-91
2023/05/23 04:01:03;;;;;;;21.95;13.02;;;15.20;99.90;;;;;;5084509;28;20374;-90
2023/05/23 04:03:31;;;;;;;12.77;10.40;;;15.30;99.90;;;;;;5074433;28;20085;-89
2023/05/23 04:05:58;;;;;;;12.85;10.73;;;15.30;99.90;;;;;;5093908;28;20024;-88
2023/05/23 04:08:24;;;;;;;13.02;10.50;;;15.40;99.90;;;;;;5084605;28;20082;-89
2023/05/23 04:10:51;;;;;;;12.48;10.23;;;15.40;99.90;;;;;;5078343;28;20027;-85
2023/05/23 04:13:20;;;;;;;17.15;10.35;;;15.50;99.90;;;;;;5078360;28;20512;-88
2023/05/23 04:15:46;;;;;;;13.20;10.90;;;15.50;99.90;;;;;;5080782;28;20031;-90
2023/05/23 04:18:13;;;;;;;13.63;10.57;;;15.50;99.90;;;;;;5080517;28;20034;-89
2023/05/23 04:20:41;;;;;;;13.80;10.38;;;15.60;99.90;;;;;;5080112;28;20035;-85
2023/05/23 04:23:07;;;;;;;30.65;12.85;;;15.60;99.90;;;;;;5076237;28;20024;-87
2023/05/23 04:25:33;;;;;;;19.00;14.75;;;15.60;99.90;;;;;;5076544;28;20105;-89
2023/05/23 04:27:59;;;;;;;22.40;14.23;;;15.60;99.90;;;;;;5082726;28;20046;-89
2023/05/23 04:30:29;;;;;;;23.40;14.85;;;15.60;99.90;;;;;;5086909;28;20078;-90
2023/05/23 04:32:56;;;;;;;22.42;16.25;;;15.60;99.90;;;;;;5080913;28;20032;-88
2023/05/23 04:35:22;;;;;;;26.67;19.95;;;15.60;99.90;;;;;;5061901;28;20032;-89
2023/05/23 04:37:48;;;;;;;32.08;20.13;;;15.50;99.90;;;;;;5076772;28;20043;-88
2023/05/23 04:40:14;;;;;;;30.83;21.77;;;15.50;99.90;;;;;;5075601;28;20032;-87
2023/05/23 04:42:43;;;;;;;36.03;26.50;;;15.50;99.90;;;;;;5054517;28;20366;-87
2023/05/23 04:45:10;;;;;;;41.10;28.35;;;15.50;99.90;;;;;;5086245;28;20039;-87
2023/05/23 04:47:36;;;;;;;46.95;30.67;;;15.40;99.90;;;;;;5076208;28;20445;-88
2023/05/23 04:50:01;;;;;;;47.03;31.27;;;15.40;99.90;;;;;;5085541;28;20078;-89
2023/05/23 04:52:28;;;;;;;50.45;32.42;;;15.30;99.90;;;;;;5073994;28;20099;-89
2023/05/23 04:54:54;;;;;;;51.00;32.60;;;15.30;99.90;;;;;;5072902;28;20036;-87
2023/05/23 04:57:20;;;;;;;45.63;30.52;;;15.30;99.90;;;;;;5086580;28;20157;-89
2023/05/23 04:59:46;;;;;;;42.53;29.25;;;15.20;99.90;;;;;;5077165;28;20032;-89
2023/05/23 05:02:12;;;;;;;57.35;30.40;;;15.10;99.90;;;;;;5084743;28;20378;-89
2023/05/23 05:04:40;;;;;;;47.08;29.20;;;15.10;99.90;;;;;;5079902;28;20341;-86
2023/05/23 05:07:06;;;;;;;43.00;26.85;;;15.00;99.90;;;;;;5079561;28;20043;-87
2023/05/23 05:09:31;;;;;;;40.38;27.58;;;15.00;99.90;;;;;;5072197;28;20024;-85
2023/05/23 05:11:58;;;;;;;43.67;28.65;;;15.00;99.90;;;;;;5092568;28;20304;-88
2023/05/23 05:14:25;;;;;;;38.88;26.48;;;14.90;99.90;;;;;;5087376;28;20027;-89
2023/05/23 05:16:51;;;;;;;42.42;26.75;;;14.90;99.90;;;;;;5080809;28;20024;-88
2023/05/23 05:19:16;;;;;;;43.58;27.88;;;14.90;99.90;;;;;;5077554;28;20054;-89
2023/05/23 05:21:42;;;;;;;40.45;27.08;;;14.90;99.90;;;;;;5087964;28;20046;-87
2023/05/23 05:24:11;;;;;;;39.92;25.67;;;14.90;99.90;;;;;;5090597;28;20068;-89
2023/05/23 05:26:37;;;;;;;40.85;24.83;;;14.80;99.90;;;;;;5070139;28;20601;-88
2023/05/23 05:29:03;;;;;;;36.63;23.40;;;14.80;99.90;;;;;;5091483;28;20028;-91
2023/05/23 05:31:28;;;;;;;36.13;22.20;;;14.80;99.90;;;;;;5083521;28;20584;-90
2023/05/23 05:33:54;;;;;;;30.48;20.60;;;14.90;99.90;;;;;;5079022;28;20029;-87
2023/05/23 05:36:20;;;;;;;30.63;21.60;;;14.90;99.90;;;;;;5096261;28;20038;-90
2023/05/23 05:38:46;;;;;;;35.63;21.63;;;14.90;99.90;;;;;;5073778;28;20032;-89
2023/05/23 05:41:15;;;;;;;34.00;21.65;;;14.90;99.90;;;;;;5076753;28;20026;-84
2023/05/23 05:43:40;;;;;;;24.95;16.38;;;15.00;99.90;;;;;;5074255;28;20036;-90
2023/05/23 05:46:06;;;;;;;23.52;17.85;;;15.00;99.90;;;;;;5085043;28;20020;-88
2023/05/23 05:48:31;;;;;;;26.90;18.83;;;15.10;99.90;;;;;;5081659;28;20444;-85
2023/05/23 05:50:59;;;;;;;24.08;15.18;;;15.10;99.90;;;;;;5087859;28;20562;-89
2023/05/23 05:53:26;;;;;;;24.17;16.67;;;15.20;99.90;;;;;;5072977;28;20144;-89
2023/05/23 05:55:53;;;;;;;21.98;16.50;;;15.20;99.90;;;;;;5079840;28;20616;-88
2023/05/23 05:58:19;;;;;;;18.65;15.00;;;15.30;99.90;;;;;;5075835;28;20031;-90
2023/05/23 06:00:45;;;;;;;27.98;16.80;;;15.30;99.90;;;;;;5060847;28;20381;-88
2023/05/23 06:03:11;;;;;;;20.30;13.45;;;15.40;99.90;;;;;;5077963;28;20031;-88
2023/05/23 06:05:38;;;;;;;17.58;12.27;;;15.50;99.90;;;;;;5081705;28;20493;-88
2023/05/23 06:08:04;;;;;;;23.70;11.93;;;15.50;99.90;;;;;;5086533;28;20119;-86
2023/05/23 06:10:29;;;;;;;15.07;11.10;;;15.60;99.90;;;;;;5082468;28;20397;-89
2023/05/23 06:12:57;;;;;;;14.88;11.13;;;15.60;99.90;;;;;;5073845;28;20078;-88
2023/05/23 06:15:22;;;;;;;13.20;9.98;;;15.70;99.90;;;;;;5078031;28;20056;-90
2023/05/23 06:17:48;;;;;;;13.93;9.77;;;15.70;99.90;;;;;;5089830;28;20511;-89
2023/05/23 06:20:14;;;;;;;19.42;11.23;;;15.70;99.90;;;;;;5092607;28;20054;-87
2023/05/23 06:22:39;;;;;;;12.32;8.98;;;15.70;99.90;;;;;;5074923;28;20051;-83
2023/05/23 06:25:06;;;;;;;13.80;8.38;;;15.80;99.90;;;;;;5086224;28;20083;-85
2023/05/23 06:27:31;;;;;;;13.80;9.75;;;15.80;99.90;;;;;;5072718;28;20536;-84
2023/05/23 06:29:57;;;;;;;15.63;9.80;;;15.80;99.90;;;;;;5073294;28;20123;-86
2023/05/23 06:32:22;;;;;;;13.32;9.55;;;15.80;99.90;;;;;;5069934;28;20443;-87
2023/05/23 06:34:48;;;;;;;17.65;11.35;;;15.80;99.90;;;;;;5078900;28;20047;-87
2023/05/23 06:37:14;;;;;;;14.95;10.68;;;15.80;99.90;;;;;;5089696;28;20404;-86
2023/05/23 06:39:39;;;;;;;21.45;13.65;;;15.80;99.90;;;;;;5079107;28;20021;-85
2023/05/23 06:42:08;;;;;;;20.13;13.10;;;15.80;99.90;;;;;;5080671;28;20620;-83
2023/05/23 06:44:34;;;;;;;17.00;12.32;;;15.80;99.90;;;;;;5080501;28;20036;-89
2023/05/23 06:46:59;;;;;;;16.73;11.50;;;15.70;99.90;;;;;;5074118;28;20089;-89
2023/05/23 06:49:25;;;;;;;20.02;15.48;;;15.70;99.90;;;;;;5071868;28;20895;-87
2023/05/23 06:51:51;;;;;;;27.38;15.77;;;15.70;99.90;;;;;;5075434;28;20530;-87
2023/05/23 06:54:18;;;;;;;25.23;14.75;;;15.60;99.90;;;;;;5078634;28;20046;-86
2023/05/23 06:56:43;;;;;;;25.77;16.48;;;15.70;99.90;;;;;;5072819;28;20405;-87
2023/05/23 06:59:09;;;;;;;24.65;15.35;;;15.60;99.90;;;;;;5088614;28;20012;-86
2023/05/23 07:01:35;;;;;;;24.08;15.30;;;15.60;99.90;;;;;;5078816;28;20269;-88
2023/05/23 07:04:00;;;;;;;28.30;17.23;;;15.60;99.90;;;;;;5074595;28;20060;-90
2023/05/23 07:06:26;;;;;;;22.52;16.13;;;15.60;99.90;;;;;;5075919;28;20070;-88
2023/05/23 07:08:52;;;;;;;26.25;15.90;;;15.60;99.90;;;;;;5083982;28;20067;-86
2023/05/23 07:11:20;;;;;;;18.27;13.93;;;15.50;99.90;;;;;;5074068;28;20082;-88
2023/05/23 07:13:46;;;;;;;21.90;16.02;;;15.50;99.90;;;;;;5073381;28;20052;-88
2023/05/23 07:16:11;;;;;;;23.35;15.90;;;15.50;99.90;;;;;;5080764;28;20048;-88
2023/05/23 07:18:38;;;;;;;20.92;14.70;;;15.50;99.90;;;;;;5077418;28;20032;-87
2023/05/23 07:21:04;;;;;;;20.40;14.73;;;15.50;99.90;;;;;;5066884;28;20473;-86
2023/05/23 07:23:33;;;;;;;17.00;12.13;;;15.50;99.90;;;;;;5059778;28;20178;-84
2023/05/23 07:25:59;;;;;;;20.38;11.50;;;15.50;99.90;;;;;;5038290;28;20047;-85
2023/05/23 07:28:24;;;;;;;12.07;9.75;;;15.50;99.90;;;;;;5039785;28;20037;-87
2023/05/23 07:30:50;;;;;;;13.98;9.45;;;15.50;99.90;;;;;;5033770;28;20026;-88
2023/05/23 07:33:18;;;;;;;16.60;10.68;;;15.60;99.90;;;;;;5031214;28;20037;-84
2023/05/23 07:35:44;;;;;;;15.07;10.55;;;15.60;99.90;;;;;;5033311;28;20069;-88
2023/05/23 07:38:12;;;;;;;17.13;11.07;;;15.70;99.90;;;;;;5041667;28;20028;-84
2023/05/23 07:40:39;;;;;;;11.82;9.68;;;15.70;99.90;;;;;;5042794;28;20466;-87
2023/05/23 07:43:05;;;;;;;19.70;10.38;;;15.70;99.90;;;;;;5042389;28;20478;-89
2023/05/23 07:45:30;;;;;;;10.93;9.50;;;15.80;99.90;;;;;;5044058;28;20616;-86
2023/05/23 07:47:56;;;;;;;12.70;8.85;;;15.80;99.90;;;;;;5033304;28;20045;-86
2023/05/23 07:50:22;;;;;;;10.70;8.10;;;15.90;99.90;;;;;;5030662;28;20093;-86
2023/05/23 07:52:50;;;;;;;9.70;7.47;;;15.80;99.90;;;;;;5037139;28;20040;-84
2023/05/23 07:55:15;;;;;;;10.80;7.88;;;15.80;99.90;;;;;;5054187;28;20046;-84
2023/05/23 07:57:41;;;;;;;12.38;7.63;;;15.80;99.90;;;;;;5045035;28;20022;-86
2023/05/23 08:00:08;;;;;;;12.77;7.28;;;15.80;99.90;;;;;;5054439;28;20130;-87
2023/05/23 08:02:34;;;;;;;17.73;8.82;;;15.80;99.90;;;;;;5034915;28;20033;-86
2023/05/23 08:05:00;;;;;;;12.90;7.03;;;15.80;99.90;;;;;;5041008;28;20382;-86
2023/05/23 08:07:25;;;;;;;6.95;5.57;;;15.80;99.90;;;;;;5044941;28;20844;-84
2023/05/23 08:09:51;;;;;;;5.95;3.95;;;15.80;99.90;;;;;;5042139;28;20064;-85
2023/05/23 08:12:17;;;;;;;5.18;3.65;;;15.80;99.90;;;;;;5043656;28;20076;-85
2023/05/23 08:14:42;;;;;;;7.93;3.65;;;15.80;99.90;;;;;;5043766;28;20025;-85
2023/05/23 08:17:10;;;;;;;5.95;3.00;;;15.70;99.90;;;;;;5043306;28;20029;-83
2023/05/23 08:19:35;;;;;;;7.93;2.95;;;15.70;99.90;;;;;;5046857;28;20035;-86
2023/05/23 08:22:01;;;;;;;3.75;2.70;;;15.60;99.90;;;;;;5041681;28;20108;-87
2023/05/23 08:24:29;;;;;;;4.35;2.42;;;15.70;99.90;;;;;;5086176;28;20566;-81
2023/05/23 08:26:54;;;;;;;4.68;1.85;;;15.70;99.90;;;;;;5084013;28;20508;-82
2023/05/23 08:29:20;;;;;;;3.58;1.98;;;15.60;99.90;;;;;;5097610;28;20032;-87
2023/05/23 08:31:46;;;;;;;2.63;1.85;;;15.50;99.90;;;;;;5088202;28;20016;-84
2023/05/23 08:34:13;;;;;;;2.97;1.70;;;15.50;99.90;;;;;;5084261;28;20212;-84
2023/05/23 08:36:41;;;;;;;3.08;1.85;;;15.50;99.90;;;;;;5090226;28;20032;-83
2023/05/23 08:39:06;;;;;;;4.80;1.90;;;15.50;99.90;;;;;;5095149;28;20096;-87
2023/05/23 08:41:33;;;;;;;2.72;1.50;;;15.50;99.90;;;;;;5085232;28;20062;-84
2023/05/23 08:43:59;;;;;;;1.85;1.60;;;15.50;99.90;;;;;;5083246;28;20115;-85
2023/05/23 08:46:26;;;;;;;1.80;1.55;;;15.60;99.90;;;;;;5086696;28;20086;-83
2023/05/23 08:48:53;;;;;;;3.33;1.42;;;15.60;99.90;;;;;;5076206;28;20043;-86
2023/05/23 08:51:25;;;;;;;2.20;1.52;;;15.60;99.90;;;;;;5091269;28;20019;-88
2023/05/23 08:53:52;;;;;;;2.80;1.65;;;15.60;99.90;;;;;;5088448;28;20031;-84
2023/05/23 08:56:18;;;;;;;1.50;1.23;;;15.60;99.90;;;;;;5078868;28;20024;-85
2023/05/23 08:58:46;;;;;;;1.23;1.05;;;15.60;99.90;;;;;;5087288;28;20020;-84
2023/05/23 09:01:13;;;;;;;5.75;1.10;;;15.60;99.90;;;;;;5076660;28;20470;-83
2023/05/23 09:03:41;;;;;;;3.78;1.23;;;15.60;99.90;;;;;;5081872;28;20089;-87
2023/05/23 09:06:09;;;;;;;3.30;1.08;;;15.60;99.90;;;;;;5079867;28;20027;-82
2023/05/23 09:08:36;;;;;;;2.20;1.02;;;15.60;99.90;;;;;;5091449;28;20043;-84
2023/05/23 09:11:03;;;;;;;1.20;1.05;;;15.60;99.90;;;;;;5085764;28;20034;-85
2023/05/23 09:13:30;;;;;;;1.90;0.90;;;15.60;99.90;;;;;;5089489;28;20226;-86
2023/05/23 09:16:04;;;;;;;1.30;0.80;;;15.60;99.90;;;;;;5080055;28;20306;-86
2023/05/23 09:18:40;;;;;;;3.40;0.80;;;15.50;99.90;;;;;;5073546;28;20028;-85
2023/05/23 09:21:09;;;;;;;;;;;15.50;99.90;;;;;;5092385;28;20040;-83
2023/05/23 09:23:38;;;;;;;3.65;0.90;;;15.50;99.90;;;;;;5072699;28;19970;-85
2023/05/23 09:26:07;;;;;;;1.33;0.70;;;15.60;99.90;;;;;;5072464;28;20069;-83
2023/05/23 09:28:34;;;;;;;2.38;0.90;;;15.50;99.90;;;;;;5084520;28;20035;-82
2023/05/23 09:31:02;;;;;;;2.05;1.00;;;15.50;99.90;;;;;;5091364;28;20023;-86
2023/05/23 09:33:42;;;;;;;0.73;0.73;;;15.50;99.90;;;;;;5089387;28;20020;-84
2023/05/23 09:36:08;;;;;;;2.22;0.80;;;15.40;99.90;;;;;;5102630;28;20383;-83
2023/05/23 09:38:47;;;;;;;0.95;0.73;;;15.30;99.90;;;;;;5095940;28;20023;-84
2023/05/23 09:41:13;;;;;;;4.22;0.93;;;15.30;99.90;;;;;;5071421;28;20028;-83
2023/05/23 09:43:53;;;;;;;2.42;1.10;;;15.20;99.90;;;;;;5061780;28;20378;-84
2023/05/23 09:46:20;;;;;;;3.67;1.00;;;15.20;99.90;;;;;;5080844;28;20028;-82
2023/05/23 09:48:50;;;;;;;4.82;1.27;;;15.10;99.90;;;;;;5080086;28;20613;-85
2023/05/23 09:51:20;;;;;;;0.90;0.90;;;15.10;99.90;;;;;;5087777;28;20343;-83
2023/05/23 09:53:46;;;;;;;3.92;1.15;;;15.00;99.90;;;;;;5070179;28;20066;-85
2023/05/23 09:56:12;;;;;;;1.13;1.13;;;14.90;99.90;;;;;;5082794;28;20024;-84
2023/05/23 09:58:39;;;;;;;4.70;1.67;;;14.90;99.90;;;;;;5081483;28;20052;-82
2023/05/23 10:01:08;;;;;;;3.17;1.50;;;14.80;99.90;;;;;;5059835;28;20040;-85
2023/05/23 10:03:45;;;;;;;4.80;2.17;;;14.70;99.90;;;;;;5081000;28;20039;-88
2023/05/23 10:06:15;;;;;;;4.10;2.33;;;14.70;99.90;;;;;;5067192;28;20013;-84
2023/05/23 10:08:46;;;;;;;6.43;2.00;;;14.70;99.90;;;;;;5090309;28;20143;-83
2023/05/23 10:11:15;;;;;;;5.78;2.20;;;14.60;99.90;;;;;;5086639;28;20028;-85
2023/05/23 10:13:43;;;;;;;3.50;1.92;;;14.50;99.90;;;;;;5086799;28;20020;-87
2023/05/23 10:16:20;;;;;;;1.63;1.20;;;14.50;99.90;;;;;;5086073;28;20110;-84
2023/05/23 10:18:51;;;;;;;2.38;1.63;;;14.50;99.90;;;;;;5079377;28;20028;-86
2023/05/23 10:21:27;;;;;;;2.28;1.50;;;14.40;99.90;;;;;;5085959;28;20059;-84
2023/05/23 10:23:53;;;;;;;2.67;1.73;;;14.40;99.90;;;;;;5083104;28;20044;-86
2023/05/23 10:26:20;;;;;;;2.28;1.70;;;14.40;99.90;;;;;;5084852;28;20035;-84
2023/05/23 10:28:47;;;;;;;6.15;2.20;;;14.40;99.90;;;;;;5081632;28;20446;-83
2023/05/23 10:31:16;;;;;;;4.35;1.80;;;14.40;99.90;;;;;;5090133;28;20094;-85
2023/05/23 10:33:52;;;;;;;5.00;2.05;;;14.30;99.90;;;;;;5074612;28;20376;-84
2023/05/23 10:36:20;;;;;;;;;;;14.30;99.90;;;;;;5075621;28;20495;-83
2023/05/23 10:38:57;;;;;;;1.73;1.58;;;14.30;99.90;;;;;;5077902;28;19907;-83
2023/05/23 10:41:57;;;;;;;2.42;1.73;;;14.30;99.90;;;;;;5077221;28;20090;-83
2023/05/23 10:44:30;;;;;;;2.90;1.73;;;14.20;99.90;;;;;;5079340;28;20472;-86
2023/05/23 10:47:01;;;;;;;6.00;2.28;;;14.10;99.90;;;;;;5085852;28;20036;-84
2023/05/23 10:49:50;;;;;;;2.45;2.22;;;14.10;99.90;;;;;;5077909;28;20039;-85
2023/05/23 10:52:16;;;;;;;4.68;3.45;;;14.10;99.90;;;;;;5081017;28;20039;-81
2023/05/23 10:54:46;;;;;;;4.30;3.03;;;14.10;99.90;;;;;;5074580;28;20470;-85
2023/05/23 10:57:17;;;;;;;4.70;3.40;;;14.10;99.90;;;;;;5075269;28;20413;-84
2023/05/23 10:59:45;;;;;;;6.13;3.00;;;14.00;99.90;;;;;;5072226;28;20130;-83
2023/05/23 11:02:14;;;;;;;5.82;2.55;;;14.00;99.90;;;;;;5087500;28;20039;-84
2023/05/23 11:04:41;;;;;;;15.15;2.33;;;14.00;99.90;;;;;;5080696;28;20032;-82
2023/05/23 11:07:30;;;;;;;3.83;2.33;;;13.90;99.90;;;;;;5087947;28;20447;-87
2023/05/23 11:10:11;;;;;;;4.07;1.42;;;13.90;99.90;;;;;;5084256;28;20022;-84
2023/05/23 11:12:41;;;;;;;2.15;1.30;;;13.90;99.90;;;;;;5069717;28;20121;-85
2023/05/23 11:15:16;;;;;;;1.50;1.40;;;13.90;99.90;;;;;;5083992;28;20039;-84
2023/05/23 11:17:51;;;;;;;4.73;1.33;;;13.80;99.90;;;;;;5073979;28;20025;-85
2023/05/23 11:20:22;;;;;;;;;;;13.80;99.90;;;;;;5083422;28;20029;-85
2023/05/23 11:22:58;;;;;;;2.47;1.27;;;13.90;99.90;;;;;;5081042;28;19960;-84
2023/05/23 11:25:49;;;;;;;1.30;1.20;;;13.90;99.90;;;;;;5087882;28;20043;-85
2023/05/23 11:28:16;;;;;;;5.28;1.52;;;13.80;99.90;;;;;;5079709;28;20505;-83
2023/05/23 11:30:42;;;;;;;1.20;1.17;;;13.80;99.90;;;;;;5089956;28;20058;-83
2023/05/23 11:33:12;;;;;;;2.20;1.60;;;13.80;99.90;;;;;;5087814;28;20036;-85
2023/05/23 11:35:45;;;;;;;2.38;1.08;;;13.80;99.90;;;;;;5083273;28;20444;-84
2023/05/23 11:38:14;;;;;;;2.28;1.38;;;13.90;99.90;;;;;;5091540;28;20032;-83
2023/05/23 11:40:43;;;;;;;1.33;1.23;;;13.90;99.90;;;;;;5072382;28;20025;-83
2023/05/23 11:43:11;;;;;;;2.17;1.42;;;13.90;99.90;;;;;;5070780;28;20032;-86
2023/05/23 11:45:37;;;;;;;2.53;1.33;;;13.90;99.90;;;;;;5075402;28;20028;-82
2023/05/23 11:48:08;;;;;;;1.70;1.13;;;14.00;99.90;;;;;;5079444;28;20337;-84
2023/05/23 11:50:42;;;;;;;1.65;1.00;;;13.90;99.90;;;;;;5071271;28;20025;-84
2023/05/23 11:53:09;;;;;;;3.13;1.13;;;13.80;99.90;;;;;;5073386;28;20102;-82
2023/05/23 11:55:39;;;;;;;4.10;1.27;;;13.80;99.90;;;;;;5082172;28;21406;-83
2023/05/23 11:58:05;;;;;;;2.85;1.50;;;13.80;99.90;;;;;;5090862;28;20026;-84
2023/05/23 12:00:30;;;;;;;2.42;1.90;;;13.80;99.90;;;;;;5087642;28;20020;-88
2023/05/23 12:02:56;;;;;;;1.80;1.70;;;13.70;99.90;;;;;;5078886;28;20427;-84
2023/05/23 12:05:22;;;;;;;4.22;2.00;;;13.70;99.90;;;;;;5072523;28;20392;-85
2023/05/23 12:07:48;;;;;;;4.30;2.83;;;13.60;99.90;;;;;;5084546;28;20050;-84
2023/05/23 12:10:15;;;;;;;4.75;2.78;;;13.50;99.90;;;;;;5067145;28;20118;-83
2023/05/23 12:12:44;;;;;;;8.98;3.60;;;13.50;99.90;;;;;;5090672;28;20502;-82
2023/05/23 12:15:11;;;;;;;7.35;4.13;;;13.40;99.90;;;;;;5086992;28;20542;-84
2023/05/23 12:17:37;;;;;;;11.75;4.25;;;13.40;99.90;;;;;;5084963;28;20029;-86
2023/05/23 12:20:10;;;;;;;11.13;6.10;;;13.30;99.90;;;;;;5081812;28;20032;-84
2023/05/23 12:22:35;;;;;;;11.30;6.68;;;13.10;99.90;;;;;;5076784;28;20106;-86
2023/05/23 12:25:01;;;;;;;9.13;5.97;;;13.00;99.90;;;;;;5092513;28;20089;-85
2023/05/23 12:27:34;;;;;;;11.90;6.75;;;13.00;99.90;;;;;;5077158;28;20483;-86
2023/05/23 12:30:05;;;;;;;17.25;8.90;;;12.90;99.90;;;;;;5091033;28;20468;-86
2023/05/23 12:32:32;;;;;;;9.88;7.60;;;12.90;99.90;;;;;;5084163;28;20480;-84
2023/05/23 12:34:57;;;;;;;18.08;10.63;;;12.90;99.90;;;;;;5069646;28;20297;-88
2023/05/23 12:37:24;;;;;;;12.23;8.93;;;12.80;99.90;;;;;;5093680;28;20020;-86
2023/05/23 12:39:50;;;;;;;18.13;9.98;;;12.70;99.90;;;;;;5083780;28;20043;-87